Time;durP1;ratioP1;P1;durP2;ratioP2;P2;SDS_P1;SDS_P2;PMS_P1;PMS_P2;Temp;Humidity;BMP_temperature;BMP_pressure;BME280_temperature;BME280_humidity;BME280_pressure;Samples;Min_cycle;Max_cycle;Signal;HPM_P1;HPM_P2
2021/05/09 00:00:44;;;;;;;1.50;1.00;;;14.50;92.30;;;;;;5024906;28;20467;-77
2021/05/09 00:03:11;;;;;;;1.50;1.00;;;14.50;92.10;;;;;;5017680;28;20483;-77
2021/05/09 00:05:37;;;;;;;1.50;0.90;;;14.50;92.40;;;;;;5032348;28;20501;-77
2021/05/09 00:08:05;;;;;;;1.50;1.00;;;14.50;92.40;;;;;;5024750;28;20959;-77
2021/05/09 00:10:31;;;;;;;1.43;0.90;;;14.40;92.40;;;;;;5024702;28;20468;-77
2021/05/09 00:12:57;;;;;;;1.50;1.00;;;14.40;92.90;;;;;;5034091;28;20475;-77
2021/05/09 00:15:26;;;;;;;1.50;1.10;;;14.40;92.90;;;;;;5038354;28;20467;-78
2021/05/09 00:17:52;;;;;;;1.50;1.10;;;14.40;93.10;;;;;;5037347;28;20494;-79
2021/05/09 00:20:20;;;;;;;1.50;0.90;;;14.30;93.60;;;;;;5032713;28;20489;-77
2021/05/09 00:22:46;;;;;;;1.40;1.00;;;14.30;93.50;;;;;;5023396;28;20856;-78
2021/05/09 00:25:14;;;;;;;1.50;1.00;;;14.30;93.20;;;;;;5035098;28;20467;-77
2021/05/09 00:27:41;;;;;;;1.50;0.90;;;14.20;93.70;;;;;;5040482;28;20554;-79
2021/05/09 00:30:08;;;;;;;1.50;1.00;;;14.20;93.60;;;;;;5036129;28;21640;-79
2021/05/09 00:32:35;;;;;;;1.50;0.90;;;14.20;93.70;;;;;;5038056;28;20478;-77
2021/05/09 00:35:01;;;;;;;1.60;1.20;;;14.20;93.30;;;;;;5038602;28;20463;-77
2021/05/09 00:37:27;;;;;;;1.50;1.00;;;14.10;93.30;;;;;;5024364;28;20978;-77
2021/05/09 00:39:54;;;;;;;1.50;0.90;;;14.10;93.30;;;;;;5033054;28;20475;-77
2021/05/09 00:42:22;;;;;;;1.50;1.00;;;14.10;93.40;;;;;;5021930;28;20547;-77
2021/05/09 00:44:48;;;;;;;1.43;1.00;;;14.10;93.60;;;;;;5038762;28;20459;-79
2021/05/09 00:47:15;;;;;;;1.50;1.10;;;14.10;93.30;;;;;;5024936;28;20497;-80
2021/05/09 00:49:42;;;;;;;1.50;1.00;;;14.10;93.20;;;;;;5037103;28;20474;-78
2021/05/09 00:52:10;;;;;;;1.50;1.00;;;14.00;93.10;;;;;;5024944;28;20485;-79
2021/05/09 00:54:40;;;;;;;1.50;1.00;;;14.00;93.50;;;;;;5038203;28;20483;-80
2021/05/09 00:57:08;;;;;;;1.50;1.00;;;14.00;93.30;;;;;;5027675;28;20479;-79
2021/05/09 00:59:38;;;;;;;1.50;1.00;;;14.00;93.40;;;;;;5040348;28;20471;-79
2021/05/09 01:02:04;;;;;;;1.50;1.00;;;14.00;93.30;;;;;;5031742;28;20479;-79
2021/05/09 01:04:31;;;;;;;1.50;1.00;;;14.00;93.20;;;;;;5042620;28;20535;-81
2021/05/09 01:06:58;;;;;;;1.50;1.00;;;14.00;93.20;;;;;;5040148;28;20473;-77
2021/05/09 01:09:24;;;;;;;1.50;1.00;;;14.00;92.80;;;;;;5048600;28;20455;-81
2021/05/09 01:11:51;;;;;;;1.50;1.10;;;14.00;92.80;;;;;;5032194;28;20529;-78
2021/05/09 01:14:17;;;;;;;1.50;1.10;;;14.00;92.70;;;;;;5037645;28;20606;-75
2021/05/09 01:16:45;;;;;;;1.50;1.00;;;13.90;92.90;;;;;;5039057;28;20489;-79
2021/05/09 01:19:11;;;;;;;1.50;1.10;;;13.90;93.00;;;;;;5050447;28;20463;-79
2021/05/09 01:21:39;;;;;;;1.50;1.00;;;13.90;93.00;;;;;;5030296;28;20479;-80
2021/05/09 01:24:06;;;;;;;1.43;0.97;;;13.80;93.20;;;;;;5038926;28;20682;-77
2021/05/09 01:26:32;;;;;;;1.50;1.00;;;13.80;93.00;;;;;;5028905;28;20493;-78
2021/05/09 01:28:58;;;;;;;1.47;1.00;;;13.80;93.40;;;;;;5040880;28;20851;-78
2021/05/09 01:31:25;;;;;;;1.50;1.00;;;13.80;93.30;;;;;;5026262;28;20486;-79
2021/05/09 01:33:51;;;;;;;1.47;1.00;;;13.80;93.40;;;;;;5035224;28;20484;-77
2021/05/09 01:36:17;;;;;;;1.47;1.00;;;13.80;93.40;;;;;;5022599;28;20483;-77
2021/05/09 01:38:44;;;;;;;1.50;1.00;;;13.80;93.30;;;;;;5026415;28;20467;-77
2021/05/09 01:41:11;;;;;;;3.10;2.80;;;13.80;93.30;;;;;;5026122;28;20573;-78
2021/05/09 01:43:37;;;;;;;1.50;0.97;;;13.80;93.40;;;;;;5040637;28;20486;-76
2021/05/09 01:46:03;;;;;;;1.50;1.00;;;13.80;93.40;;;;;;5024054;28;20474;-77
2021/05/09 01:48:30;;;;;;;1.50;1.00;;;13.80;93.00;;;;;;5035740;28;21251;-76
2021/05/09 01:50:56;;;;;;;1.47;1.00;;;13.80;93.30;;;;;;5029380;28;20470;-76
2021/05/09 01:53:23;;;;;;;1.50;1.00;;;13.80;93.50;;;;;;5050406;28;20486;-77
2021/05/09 01:55:50;;;;;;;1.50;1.00;;;13.80;93.60;;;;;;5025534;28;20459;-77
2021/05/09 01:58:16;;;;;;;1.50;1.10;;;13.80;93.70;;;;;;5031339;28;21188;-77
2021/05/09 02:00:42;;;;;;;1.60;1.20;;;13.80;93.20;;;;;;5028194;28;20471;-77
2021/05/09 02:03:09;;;;;;;1.50;1.00;;;13.70;93.40;;;;;;5015847;28;20471;-77
2021/05/09 02:05:35;;;;;;;1.50;1.00;;;13.70;93.90;;;;;;5039740;28;20462;-77
2021/05/09 02:08:01;;;;;;;1.47;0.90;;;13.60;94.00;;;;;;5033225;28;20474;-76
2021/05/09 02:10:27;;;;;;;1.47;1.00;;;13.60;93.90;;;;;;5021968;28;20460;-78
2021/05/09 02:12:55;;;;;;;1.50;1.00;;;13.60;94.10;;;;;;5025096;28;20907;-77
2021/05/09 02:15:21;;;;;;;1.50;1.10;;;13.50;94.30;;;;;;5039431;28;20475;-78
2021/05/09 02:17:47;;;;;;;1.50;1.00;;;13.50;94.50;;;;;;5018416;28;20488;-79
2021/05/09 02:20:15;;;;;;;1.50;1.00;;;13.60;94.80;;;;;;5034576;28;20498;-78
2021/05/09 02:22:41;;;;;;;1.50;1.00;;;13.60;94.90;;;;;;5044494;28;20505;-77
2021/05/09 02:25:09;;;;;;;1.47;1.00;;;13.60;94.70;;;;;;5034886;28;20535;-77
2021/05/09 02:27:35;;;;;;;1.47;1.00;;;13.60;94.40;;;;;;5011434;28;21132;-77
2021/05/09 02:30:03;;;;;;;1.43;0.93;;;13.60;94.70;;;;;;5035367;28;20525;-77
2021/05/09 02:32:29;;;;;;;1.50;1.10;;;13.60;94.60;;;;;;5025462;28;20565;-75
2021/05/09 02:34:56;;;;;;;1.50;1.00;;;13.60;94.60;;;;;;5033552;28;20468;-75
2021/05/09 02:37:22;;;;;;;1.50;1.00;;;13.60;95.00;;;;;;5034236;28;21411;-78
2021/05/09 02:39:48;;;;;;;1.60;1.40;;;13.50;94.70;;;;;;5037320;28;20463;-78
2021/05/09 02:42:15;;;;;;;1.47;0.90;;;13.50;94.60;;;;;;5017914;28;20475;-79
2021/05/09 02:44:41;;;;;;;1.50;0.90;;;13.50;94.60;;;;;;5031315;28;20532;-77
2021/05/09 02:47:09;;;;;;;1.47;1.00;;;13.40;95.00;;;;;;5024073;28;21151;-78
2021/05/09 02:49:35;;;;;;;1.50;1.00;;;13.40;95.10;;;;;;5035651;28;20557;-77
2021/05/09 02:52:02;;;;;;;1.50;1.00;;;13.30;94.80;;;;;;5030681;28;20486;-77
2021/05/09 02:54:28;;;;;;;1.50;1.00;;;13.30;95.20;;;;;;5042891;28;20467;-77
2021/05/09 02:56:55;;;;;;;1.50;1.00;;;13.30;95.30;;;;;;5022950;28;20574;-77
2021/05/09 02:59:21;;;;;;;1.50;1.00;;;13.30;95.60;;;;;;5031301;28;20467;-77
2021/05/09 03:01:47;;;;;;;1.50;1.00;;;13.30;95.50;;;;;;5036914;28;20490;-76
2021/05/09 03:04:14;;;;;;;1.50;1.00;;;13.30;95.60;;;;;;5044363;28;20471;-76
2021/05/09 03:06:41;;;;;;;1.50;1.03;;;13.30;95.50;;;;;;5015455;28;20880;-77
2021/05/09 03:09:07;;;;;;;1.50;1.00;;;13.30;95.30;;;;;;5035697;28;20958;-76
2021/05/09 03:11:33;;;;;;;1.50;1.00;;;13.30;95.10;;;;;;5027554;28;20516;-78
2021/05/09 03:14:00;;;;;;;1.50;1.00;;;13.40;95.50;;;;;;5035711;28;20569;-77
2021/05/09 03:16:26;;;;;;;1.50;1.00;;;13.40;95.10;;;;;;5024333;28;20511;-76
2021/05/09 03:18:52;;;;;;;1.40;1.00;;;13.40;95.00;;;;;;5036320;28;20860;-77
2021/05/09 03:21:21;;;;;;;1.50;1.00;;;13.40;94.80;;;;;;5027191;28;20509;-78
2021/05/09 03:23:48;;;;;;;1.50;1.00;;;13.40;95.00;;;;;;5035919;28;20554;-77
2021/05/09 03:26:14;;;;;;;1.50;1.00;;;13.40;95.00;;;;;;5024112;28;20514;-77
2021/05/09 03:28:40;;;;;;;1.50;1.00;;;13.40;94.90;;;;;;5034822;28;20475;-77
2021/05/09 03:31:06;;;;;;;1.50;1.13;;;13.40;94.50;;;;;;5026350;28;20529;-77
2021/05/09 03:33:33;;;;;;;1.50;1.00;;;13.30;94.80;;;;;;5044812;28;20499;-77
2021/05/09 03:35:59;;;;;;;1.47;1.00;;;13.30;95.00;;;;;;5022727;28;20887;-76
2021/05/09 03:38:26;;;;;;;1.50;1.00;;;13.30;94.80;;;;;;5041271;28;20738;-77
2021/05/09 03:40:53;;;;;;;1.50;1.00;;;13.20;94.70;;;;;;5023474;28;20463;-77
2021/05/09 03:43:19;;;;;;;1.50;1.20;;;13.20;94.90;;;;;;5024939;28;20459;-77
2021/05/09 03:45:46;;;;;;;1.50;1.00;;;13.20;94.70;;;;;;5034604;28;20463;-78
2021/05/09 03:48:12;;;;;;;1.50;1.10;;;13.10;94.80;;;;;;5028803;28;20494;-77
2021/05/09 03:50:38;;;;;;;1.50;1.20;;;13.10;94.80;;;;;;5035649;28;20486;-78
2021/05/09 03:53:05;;;;;;;1.50;1.00;;;13.10;95.00;;;;;;5023184;28;21029;-78
2021/05/09 03:55:32;;;;;;;1.50;1.00;;;13.10;94.90;;;;;;5036832;28;20467;-77
2021/05/09 03:57:58;;;;;;;1.50;1.00;;;13.00;95.00;;;;;;5021267;28;20490;-79
2021/05/09 04:00:25;;;;;;;1.50;1.00;;;13.00;95.10;;;;;;5031417;28;20488;-77
2021/05/09 04:02:52;;;;;;;1.50;0.97;;;13.00;95.20;;;;;;5023284;28;20483;-77
2021/05/09 04:05:18;;;;;;;1.50;1.00;;;13.00;95.30;;;;;;5033733;28;20516;-77
2021/05/09 04:07:44;;;;;;;1.50;1.00;;;13.00;95.50;;;;;;5042100;28;20496;-77
2021/05/09 04:10:11;;;;;;;1.50;1.00;;;13.00;95.40;;;;;;5036704;28;20546;-80
2021/05/09 04:12:38;;;;;;;1.50;1.00;;;12.90;95.30;;;;;;5023109;28;20487;-82
2021/05/09 04:15:06;;;;;;;1.50;1.00;;;12.90;95.50;;;;;;5034968;28;20551;-78
2021/05/09 04:17:32;;;;;;;1.50;1.00;;;12.90;95.50;;;;;;5019830;28;20495;-77
2021/05/09 04:19:58;;;;;;;1.50;1.00;;;12.90;95.60;;;;;;5038671;28;20529;-78
2021/05/09 04:22:25;;;;;;;1.47;0.90;;;12.90;95.90;;;;;;5040319;28;20489;-78
2021/05/09 04:24:51;;;;;;;1.47;1.00;;;12.90;95.80;;;;;;5039937;28;20459;-78
2021/05/09 04:27:17;;;;;;;1.50;1.10;;;12.90;96.00;;;;;;5040237;28;20529;-77
2021/05/09 04:29:44;;;;;;;1.50;1.10;;;12.90;95.80;;;;;;5038027;28;20944;-79
2021/05/09 04:32:11;;;;;;;1.50;1.10;;;12.90;95.70;;;;;;5024600;28;21091;-81
2021/05/09 04:34:37;;;;;;;1.50;1.10;;;12.90;95.60;;;;;;5034114;28;20465;-79
2021/05/09 04:37:03;;;;;;;1.50;1.10;;;12.90;95.50;;;;;;5022067;28;20494;-79
2021/05/09 04:39:29;;;;;;;1.50;1.00;;;12.90;95.50;;;;;;5032668;28;20950;-77
2021/05/09 04:41:56;;;;;;;1.50;1.03;;;13.00;95.50;;;;;;5022751;28;20479;-79
2021/05/09 04:44:22;;;;;;;1.50;1.00;;;13.00;95.70;;;;;;5035886;28;20483;-78
2021/05/09 04:46:49;;;;;;;1.50;1.00;;;13.00;95.60;;;;;;5024555;28;20491;-78
2021/05/09 04:49:15;;;;;;;1.50;1.00;;;13.00;95.40;;;;;;5031669;28;20463;-79
2021/05/09 04:51:42;;;;;;;1.47;1.00;;;13.10;95.30;;;;;;5024098;28;20479;-77
2021/05/09 04:54:08;;;;;;;1.50;1.00;;;13.10;95.20;;;;;;5036821;28;20576;-78
2021/05/09 04:56:34;;;;;;;1.50;1.00;;;13.20;95.20;;;;;;5020329;28;20522;-77
2021/05/09 04:59:00;;;;;;;1.50;1.00;;;13.30;94.80;;;;;;5025090;28;20498;-76
2021/05/09 05:01:27;;;;;;;1.50;1.00;;;13.40;94.80;;;;;;5020591;28;20489;-76
2021/05/09 05:03:54;;;;;;;1.50;1.00;;;13.50;94.40;;;;;;5039957;28;20464;-80
2021/05/09 05:06:20;;;;;;;1.50;1.00;;;13.60;94.30;;;;;;5030054;28;20482;-76
2021/05/09 05:08:46;;;;;;;1.50;1.07;;;13.70;94.10;;;;;;5045829;28;20459;-76
2021/05/09 05:11:12;;;;;;;1.50;1.00;;;13.80;93.70;;;;;;5023112;28;20508;-79
2021/05/09 05:13:39;;;;;;;1.50;1.00;;;13.90;93.70;;;;;;5031456;28;20546;-78
2021/05/09 05:16:07;;;;;;;1.50;1.00;;;14.00;93.10;;;;;;5025216;28;20519;-77
2021/05/09 05:18:34;;;;;;;1.50;1.10;;;14.20;92.90;;;;;;5033787;28;20464;-78
2021/05/09 05:21:03;;;;;;;1.50;1.00;;;14.40;92.00;;;;;;5020433;28;20460;-77
2021/05/09 05:23:30;;;;;;;1.50;1.00;;;14.50;91.30;;;;;;5023997;28;20991;-76
2021/05/09 05:25:56;;;;;;;1.50;1.10;;;14.60;91.30;;;;;;5018509;28;20465;-77
2021/05/09 05:28:22;;;;;;;1.47;0.90;;;14.60;91.00;;;;;;5030541;28;20465;-77
2021/05/09 05:30:49;;;;;;;1.47;0.93;;;14.60;91.10;;;;;;5022051;28;20490;-77
2021/05/09 05:33:27;;;;;;;1.50;1.00;;;14.60;91.20;;;;;;5041674;28;20487;-78
2021/05/09 05:35:53;;;;;;;1.50;1.00;;;14.60;91.20;;;;;;5022543;28;20470;-77
2021/05/09 05:38:20;;;;;;;1.50;1.00;;;14.60;90.90;;;;;;5036042;28;20474;-78
2021/05/09 05:40:50;;;;;;;1.50;1.00;;;14.60;91.00;;;;;;5035422;28;20877;-77
2021/05/09 05:43:16;;;;;;;1.47;0.90;;;14.60;91.00;;;;;;5024550;28;20471;-77
2021/05/09 05:45:42;;;;;;;1.50;1.00;;;14.70;91.00;;;;;;5036228;28;20464;-77
2021/05/09 05:48:09;;;;;;;1.50;1.07;;;14.80;91.00;;;;;;5042819;28;20495;-77
2021/05/09 05:50:35;;;;;;;1.50;0.90;;;14.90;90.50;;;;;;5037611;28;20489;-79
2021/05/09 05:53:02;;;;;;;1.50;0.90;;;15.10;90.60;;;;;;5025710;28;20483;-79
2021/05/09 05:55:29;;;;;;;1.50;0.90;;;15.40;89.70;;;;;;5037258;28;20566;-77
2021/05/09 05:57:55;;;;;;;1.50;1.00;;;15.60;89.40;;;;;;5019292;28;20490;-78
2021/05/09 06:00:22;;;;;;;1.50;1.00;;;15.80;88.80;;;;;;5029349;28;20471;-77
2021/05/09 06:02:48;;;;;;;1.50;1.00;;;15.90;88.00;;;;;;5041646;28;20544;-78
2021/05/09 06:05:15;;;;;;;1.50;1.10;;;16.10;87.60;;;;;;5034978;28;20463;-78
2021/05/09 06:07:41;;;;;;;1.50;0.97;;;16.20;87.10;;;;;;5042404;28;20513;-78
2021/05/09 06:10:08;;;;;;;1.50;1.00;;;16.40;86.80;;;;;;5036722;28;20459;-77
2021/05/09 06:12:36;;;;;;;1.50;1.00;;;16.50;86.40;;;;;;5041177;28;20555;-77
2021/05/09 06:15:02;;;;;;;1.50;0.90;;;16.70;86.40;;;;;;5039200;28;20519;-77
2021/05/09 06:17:29;;;;;;;1.50;1.00;;;16.90;85.70;;;;;;5023715;28;20610;-80
2021/05/09 06:19:55;;;;;;;1.50;0.97;;;17.00;84.90;;;;;;5036169;28;20545;-78
2021/05/09 06:22:21;;;;;;;1.50;1.00;;;17.10;84.90;;;;;;5025810;28;20503;-79
2021/05/09 06:24:47;;;;;;;1.50;0.93;;;17.30;84.00;;;;;;5035347;28;20531;-76
2021/05/09 06:27:14;;;;;;;1.50;0.90;;;17.40;83.60;;;;;;5032876;28;20486;-76
2021/05/09 06:29:41;;;;;;;1.50;0.90;;;17.50;83.50;;;;;;5037138;28;20462;-78
2021/05/09 06:32:08;;;;;;;1.60;1.10;;;17.60;83.30;;;;;;5023687;28;20549;-78
2021/05/09 06:34:34;;;;;;;1.50;1.00;;;17.70;83.30;;;;;;5035715;28;20462;-79
2021/05/09 06:37:00;;;;;;;1.50;1.00;;;17.70;82.60;;;;;;5020456;28;20552;-78
2021/05/09 06:39:27;;;;;;;1.50;1.00;;;17.80;82.70;;;;;;5036025;28;20463;-77
2021/05/09 06:41:56;;;;;;;1.50;1.00;;;18.00;82.70;;;;;;5034255;28;20911;-78
2021/05/09 06:44:25;;;;;;;1.50;1.00;;;18.00;81.90;;;;;;5042238;28;20466;-79
2021/05/09 06:46:52;;;;;;;1.50;0.93;;;18.10;81.90;;;;;;5018878;28;20685;-76
2021/05/09 06:49:19;;;;;;;1.50;1.00;;;18.20;81.90;;;;;;5025445;28;20494;-79
2021/05/09 06:51:45;;;;;;;1.50;0.90;;;18.40;81.90;;;;;;5018056;28;20487;-79
2021/05/09 06:54:11;;;;;;;1.50;0.90;;;18.60;81.20;;;;;;5035413;28;20880;-80
2021/05/09 06:56:37;;;;;;;1.50;0.90;;;18.70;80.80;;;;;;5035949;28;20552;-77
2021/05/09 06:59:04;;;;;;;1.50;1.00;;;18.70;80.60;;;;;;5040518;28;20566;-78
2021/05/09 07:01:31;;;;;;;1.50;1.00;;;18.80;80.50;;;;;;5022500;28;21032;-80
2021/05/09 07:03:59;;;;;;;1.50;0.97;;;18.90;80.20;;;;;;5029156;28;20459;-78
2021/05/09 07:06:25;;;;;;;1.50;1.00;;;19.00;80.10;;;;;;5020968;28;20495;-75
2021/05/09 07:08:51;;;;;;;1.50;0.90;;;19.10;80.00;;;;;;5033524;28;20490;-81
2021/05/09 07:11:18;;;;;;;1.70;1.40;;;19.20;79.50;;;;;;5020626;28;20579;-80
2021/05/09 07:13:44;;;;;;;1.50;0.90;;;19.30;79.30;;;;;;5027040;28;20967;-77
2021/05/09 07:16:10;;;;;;;1.50;0.93;;;19.50;79.10;;;;;;5025690;28;20489;-78
2021/05/09 07:18:37;;;;;;;1.50;0.90;;;19.60;78.80;;;;;;5048540;28;20464;-78
2021/05/09 07:21:12;;;;;;;1.50;1.10;;;19.70;78.40;;;;;;5021668;28;20498;-77
2021/05/09 07:23:44;;;;;;;1.50;1.00;;;19.70;78.50;;;;;;5030265;28;20454;-78
2021/05/09 07:26:10;;;;;;;1.50;0.90;;;19.80;78.10;;;;;;5014846;28;20491;-77
2021/05/09 07:28:37;;;;;;;1.50;0.90;;;19.90;78.30;;;;;;5027054;28;20463;-76
2021/05/09 07:31:03;;;;;;;1.50;0.90;;;20.00;78.00;;;;;;5019772;28;20550;-78
2021/05/09 07:33:29;;;;;;;1.50;0.90;;;20.10;78.10;;;;;;5024028;28;20491;-78
2021/05/09 07:35:56;;;;;;;1.50;0.90;;;20.30;78.00;;;;;;5021531;28;20816;-75
2021/05/09 07:38:23;;;;;;;1.50;1.00;;;20.40;77.50;;;;;;5051703;28;20474;-77
2021/05/09 07:40:49;;;;;;;1.50;0.90;;;20.60;77.20;;;;;;5030940;28;20470;-78
2021/05/09 07:43:16;;;;;;;1.50;1.00;;;20.60;77.10;;;;;;5019028;28;20479;-77
2021/05/09 07:45:42;;;;;;;1.50;1.00;;;20.80;76.80;;;;;;5032031;28;20981;-78
2021/05/09 07:48:09;;;;;;;1.50;0.90;;;21.00;77.20;;;;;;5012236;28;20499;-78
2021/05/09 07:50:37;;;;;;;1.50;0.90;;;21.20;76.80;;;;;;5032338;28;20463;-80
2021/05/09 07:53:04;;;;;;;1.50;0.90;;;21.50;75.90;;;;;;5021519;28;20571;-78
2021/05/09 07:55:32;;;;;;;1.50;0.80;;;21.80;75.90;;;;;;5030127;28;20470;-79
2021/05/09 07:57:58;;;;;;;1.50;1.00;;;22.00;75.40;;;;;;5018460;28;20586;-79
2021/05/09 08:00:25;;;;;;;1.50;0.90;;;22.20;75.20;;;;;;5027115;28;20470;-79
2021/05/09 08:02:52;;;;;;;1.50;0.90;;;22.20;74.60;;;;;;5019301;28;20487;-78
2021/05/09 08:05:19;;;;;;;1.50;0.90;;;22.30;74.70;;;;;;5028628;28;20463;-78
2021/05/09 08:07:50;;;;;;;1.57;1.00;;;22.40;74.50;;;;;;5029264;28;21048;-76
2021/05/09 08:10:17;;;;;;;1.50;0.90;;;22.50;74.10;;;;;;5027661;28;20461;-79
2021/05/09 08:12:44;;;;;;;1.50;0.90;;;22.50;73.80;;;;;;5012022;28;20563;-77
2021/05/09 08:15:11;;;;;;;1.50;0.90;;;22.60;74.80;;;;;;5029869;28;20502;-79
2021/05/09 08:17:38;;;;;;;1.50;0.90;;;22.90;73.40;;;;;;5028820;28;20991;-77
2021/05/09 08:20:05;;;;;;;1.50;0.90;;;22.90;73.20;;;;;;5028297;28;20526;-77
2021/05/09 08:22:31;;;;;;;1.50;0.90;;;22.90;73.10;;;;;;5027646;28;20494;-77
2021/05/09 08:24:58;;;;;;;1.40;0.90;;;22.80;73.40;;;;;;5032619;28;20475;-80
2021/05/09 08:27:24;;;;;;;1.50;0.90;;;22.60;73.70;;;;;;5018931;28;20897;-77
2021/05/09 08:29:53;;;;;;;1.47;0.90;;;22.50;73.80;;;;;;5031321;28;20474;-79
2021/05/09 08:32:19;;;;;;;1.50;0.90;;;22.50;74.60;;;;;;5028864;28;20819;-79
2021/05/09 08:34:46;;;;;;;1.50;0.80;;;22.50;74.50;;;;;;5034279;28;20479;-81
2021/05/09 08:37:12;;;;;;;1.50;0.90;;;22.50;74.60;;;;;;5021756;28;20495;-77
2021/05/09 08:39:39;;;;;;;1.50;0.90;;;22.40;74.70;;;;;;5030620;28;20463;-79
2021/05/09 08:42:06;;;;;;;1.50;0.90;;;22.50;74.80;;;;;;5029691;28;20753;-80
2021/05/09 08:44:34;;;;;;;1.50;0.90;;;22.50;74.70;;;;;;5035610;28;20493;-79
2021/05/09 08:47:03;;;;;;;1.43;0.90;;;22.50;74.00;;;;;;5011795;28;20631;-76
2021/05/09 08:49:30;;;;;;;1.50;0.90;;;22.50;74.60;;;;;;5026314;28;20459;-80
2021/05/09 08:51:59;;;;;;;1.50;0.90;;;22.50;74.50;;;;;;5018053;28;20487;-77
2021/05/09 08:54:25;;;;;;;1.50;0.90;;;22.50;74.90;;;;;;5029318;28;20518;-79
2021/05/09 08:56:52;;;;;;;1.50;0.90;;;22.50;75.00;;;;;;5017589;28;20497;-77
2021/05/09 08:59:18;;;;;;;1.70;1.20;;;22.60;74.80;;;;;;5024535;28;20897;-77
2021/05/09 09:01:45;;;;;;;1.50;0.90;;;22.70;74.30;;;;;;5011722;28;20491;-78
2021/05/09 09:04:14;;;;;;;1.50;0.90;;;22.80;74.40;;;;;;5019765;28;20503;-77
2021/05/09 09:06:42;;;;;;;1.47;0.90;;;23.10;74.10;;;;;;5014294;28;20548;-80
2021/05/09 09:09:19;;;;;;;1.50;0.90;;;23.20;73.40;;;;;;5021135;28;20561;-80
2021/05/09 09:11:50;;;;;;;1.47;0.87;;;23.20;73.40;;;;;;5012364;28;20541;-78
2021/05/09 09:14:17;;;;;;;1.43;0.90;;;23.10;73.60;;;;;;5026057;28;20468;-80
2021/05/09 09:16:43;;;;;;;1.80;1.10;;;23.10;73.50;;;;;;5031880;28;20493;-79
2021/05/09 09:19:11;;;;;;;1.50;0.90;;;23.20;74.00;;;;;;5042030;28;20550;-80
2021/05/09 09:21:39;;;;;;;1.50;0.90;;;23.30;73.40;;;;;;5030232;28;20512;-79
2021/05/09 09:24:06;;;;;;;1.50;0.93;;;23.40;72.90;;;;;;5041183;28;20483;-79
2021/05/09 09:26:38;;;;;;;1.50;0.90;;;23.50;72.80;;;;;;5020568;28;20498;-79
2021/05/09 09:29:23;;;;;;;1.43;0.90;;;23.50;72.90;;;;;;5036383;28;20553;-81
2021/05/09 09:31:54;;;;;;;1.47;0.90;;;23.70;72.60;;;;;;5028241;28;20488;-79
2021/05/09 09:34:21;;;;;;;1.43;0.90;;;23.70;72.10;;;;;;5040193;28;20525;-81
2021/05/09 09:36:48;;;;;;;1.50;0.90;;;23.90;72.70;;;;;;5031609;28;20490;-79
2021/05/09 09:39:15;;;;;;;1.43;0.90;;;24.10;72.00;;;;;;5043772;28;21050;-81
2021/05/09 09:41:45;;;;;;;1.50;0.90;;;24.00;71.60;;;;;;5019517;28;20482;-79
2021/05/09 09:44:15;;;;;;;1.50;0.80;;;23.90;72.10;;;;;;5032125;28;20483;-79
2021/05/09 09:46:45;;;;;;;1.50;0.90;;;24.00;71.60;;;;;;5024527;28;20520;-78
2021/05/09 09:49:26;;;;;;;1.50;0.90;;;24.10;71.40;;;;;;5037115;28;20921;-80
2021/05/09 09:51:55;;;;;;;1.50;0.90;;;24.20;71.10;;;;;;5012765;28;20479;-78
2021/05/09 09:54:41;;;;;;;1.50;0.90;;;24.30;71.70;;;;;;5034320;28;20521;-78
2021/05/09 09:57:10;;;;;;;1.47;0.80;;;24.50;71.20;;;;;;5032169;28;20490;-79
2021/05/09 09:59:37;;;;;;;1.50;0.90;;;24.60;70.60;;;;;;5047651;22;20928;-77
2021/05/09 10:02:05;;;;;;;1.50;0.80;;;24.70;71.10;;;;;;5019375;28;21020;-79
2021/05/09 10:04:32;;;;;;;1.50;1.00;;;24.80;71.20;;;;;;5030456;28;20487;-78
2021/05/09 10:07:05;;;;;;;1.43;0.80;;;24.70;70.60;;;;;;5009785;28;20483;-79
2021/05/09 10:09:32;;;;;;;1.50;1.03;;;24.70;70.10;;;;;;5006241;28;20492;-77
2021/05/09 10:11:58;;;;;;;1.47;0.80;;;24.80;70.40;;;;;;5006552;28;20499;-79
2021/05/09 10:14:24;;;;;;;1.50;0.90;;;25.10;70.10;;;;;;5011120;28;20517;-78
2021/05/09 10:16:51;;;;;;;1.50;0.90;;;25.30;69.70;;;;;;5006527;28;20498;-78
2021/05/09 10:19:23;;;;;;;1.47;0.90;;;25.50;70.00;;;;;;5002241;28;20997;-78
2021/05/09 10:21:49;;;;;;;1.50;1.00;;;25.80;69.50;;;;;;5002975;28;20473;-79
2021/05/09 10:24:17;;;;;;;1.50;0.90;;;26.10;68.90;;;;;;5008676;28;20483;-78
2021/05/09 10:26:50;;;;;;;1.50;0.80;;;26.30;68.20;;;;;;5002446;28;20478;-78
2021/05/09 10:29:48;;;;;;;1.47;0.90;;;26.50;68.30;;;;;;5008746;28;20491;-79
2021/05/09 10:32:48;;;;;;;1.50;1.00;;;26.60;67.80;;;;;;5005363;28;20590;-78
2021/05/09 10:35:14;;;;;;;1.50;1.00;;;26.80;67.90;;;;;;5004731;28;20613;-79
2021/05/09 10:38:05;;;;;;;1.50;0.90;;;26.90;67.40;;;;;;5007359;28;21043;-78
2021/05/09 10:40:36;;;;;;;1.50;0.83;;;27.10;67.20;;;;;;5001765;28;20471;-79
2021/05/09 10:43:39;;;;;;;1.50;0.80;;;26.90;66.50;;;;;;5011423;28;20489;-77
2021/05/09 10:46:07;;;;;;;1.80;1.20;;;26.80;66.70;;;;;;4999518;28;20483;-78
2021/05/09 10:48:34;;;;;;;1.53;1.10;;;26.50;67.30;;;;;;5020057;28;20950;-78
2021/05/09 10:51:27;;;;;;;1.50;0.80;;;26.30;67.90;;;;;;4999407;28;20559;-79
2021/05/09 10:53:57;;;;;;;1.60;1.10;;;26.20;68.30;;;;;;5004602;28;20468;-78
2021/05/09 10:56:36;;;;;;;1.50;0.90;;;26.20;68.20;;;;;;4998682;28;20482;-79
2021/05/09 10:59:02;;;;;;;1.50;1.00;;;26.30;68.50;;;;;;5010553;28;21077;-79
2021/05/09 11:01:32;;;;;;;1.47;0.90;;;26.40;68.60;;;;;;4999812;28;20503;-79
2021/05/09 11:04:00;;;;;;;1.50;0.97;;;26.40;68.00;;;;;;5017829;28;20486;-78
2021/05/09 11:06:44;;;;;;;1.50;0.80;;;26.50;68.20;;;;;;5001700;28;20482;-79
2021/05/09 11:09:12;;;;;;;1.50;0.90;;;26.40;68.20;;;;;;5013569;28;20475;-78
2021/05/09 11:12:06;;;;;;;1.60;1.10;;;26.40;68.70;;;;;;5005737;28;20525;-78
2021/05/09 11:14:37;;;;;;;1.50;1.00;;;26.50;68.40;;;;;;5001812;28;20598;-79
2021/05/09 11:17:08;;;;;;;1.50;0.87;;;26.50;68.40;;;;;;5009109;28;20526;-79
2021/05/09 11:19:38;;;;;;;1.43;0.90;;;26.60;68.80;;;;;;5011623;28;20492;-78
2021/05/09 11:22:04;;;;;;;1.50;1.00;;;26.70;68.20;;;;;;5005391;28;20583;-79
2021/05/09 11:24:32;;;;;;;1.50;1.00;;;26.80;68.30;;;;;;5009651;28;20490;-78
2021/05/09 11:27:00;;;;;;;1.60;1.50;;;26.90;67.80;;;;;;5003580;28;20487;-80
2021/05/09 11:29:28;;;;;;;1.70;1.40;;;27.00;67.00;;;;;;5014900;28;20538;-78
2021/05/09 11:31:56;;;;;;;1.60;1.10;;;27.10;67.50;;;;;;5006422;28;20482;-77
2021/05/09 11:34:25;;;;;;;1.50;0.90;;;27.20;67.00;;;;;;5011401;28;20474;-77
2021/05/09 11:37:35;;;;;;;1.50;0.87;;;27.20;66.90;;;;;;5003561;28;20488;-74
2021/05/09 11:40:07;;;;;;;1.50;0.90;;;27.20;66.60;;;;;;4935144;29;20471;-77
2021/05/09 11:42:34;;;;;;;1.50;1.00;;;27.40;67.70;;;;;;4954394;28;21035;-79
2021/05/09 11:45:01;;;;;;;1.50;0.90;;;27.70;67.30;;;;;;5016342;28;20479;-79
2021/05/09 11:47:29;;;;;;;1.50;0.90;;;28.10;67.10;;;;;;5029616;28;20485;-78
2021/05/09 11:49:57;;;;;;;1.50;0.90;;;28.50;65.80;;;;;;5028253;28;20486;-77
2021/05/09 11:52:26;;;;;;;1.50;0.80;;;28.90;64.40;;;;;;5005228;28;20494;-78
2021/05/09 11:54:53;;;;;;;1.50;0.90;;;29.20;64.50;;;;;;5004023;28;20495;-79
2021/05/09 11:57:21;;;;;;;1.43;0.80;;;29.50;63.60;;;;;;5011255;28;20489;-74
2021/05/09 11:59:48;;;;;;;1.50;0.80;;;29.70;63.90;;;;;;5006945;28;20692;-77
2021/05/09 12:02:24;;;;;;;1.50;0.80;;;29.90;63.20;;;;;;5000507;28;20969;-78
2021/05/09 12:04:53;;;;;;;1.50;0.90;;;30.00;63.10;;;;;;5011933;28;20506;-77
2021/05/09 12:07:21;;;;;;;1.50;0.80;;;30.20;63.10;;;;;;5006032;28;20930;-78
2021/05/09 12:09:58;;;;;;;1.50;0.80;;;30.30;63.00;;;;;;5009863;28;21053;-78
2021/05/09 12:12:28;;;;;;;1.50;0.90;;;30.40;62.60;;;;;;5006549;28;20513;-77
2021/05/09 12:14:54;;;;;;;1.47;0.80;;;30.60;61.50;;;;;;5009053;28;20517;-77
2021/05/09 12:17:26;;;;;;;1.50;0.83;;;30.70;60.40;;;;;;5006513;28;20497;-78
2021/05/09 12:19:54;;;;;;;1.47;0.90;;;30.80;58.30;;;;;;5006975;28;20488;-78
2021/05/09 12:22:21;;;;;;;1.50;0.80;;;30.80;58.20;;;;;;5000804;28;21000;-77
2021/05/09 12:24:56;;;;;;;1.47;0.80;;;31.00;58.00;;;;;;5008205;28;20485;-79
2021/05/09 12:27:25;;;;;;;1.47;0.90;;;31.10;57.10;;;;;;5003614;28;20478;-78
2021/05/09 12:29:52;;;;;;;1.47;0.87;;;31.30;57.40;;;;;;4998293;28;20499;-78
2021/05/09 12:32:25;;;;;;;1.43;0.80;;;31.40;56.50;;;;;;5007963;28;20490;-78
2021/05/09 12:35:07;;;;;;;1.47;0.80;;;31.50;57.40;;;;;;5012136;28;20476;-77
2021/05/09 12:37:33;;;;;;;1.50;0.80;;;31.60;57.40;;;;;;5007536;28;20494;-77
2021/05/09 12:40:17;;;;;;;1.50;0.80;;;31.60;57.80;;;;;;5008476;28;20836;-77
2021/05/09 12:43:01;;;;;;;1.50;0.80;;;31.50;57.00;;;;;;5005001;28;20235;-78
2021/05/09 12:45:29;;;;;;;1.50;0.80;;;31.50;57.40;;;;;;5007139;28;20200;-76
2021/05/09 12:48:08;;;;;;;1.50;0.90;;;31.60;57.30;;;;;;5012375;28;20227;-77
2021/05/09 12:51:00;;;;;;;1.50;0.90;;;31.80;57.20;;;;;;5009329;28;20204;-78
2021/05/09 12:53:48;;;;;;;1.40;0.80;;;32.00;56.70;;;;;;4969243;28;20572;-77